sensor_id;sensor_type;location;lat;lon;timestamp;pressure;altitude;pressure_sealevel;temperature;humidity
50368;BME280;36281;34.132;-118.018;2023-02-20T00:01:53;100164.78;;;20.44;27.32
50368;BME280;36281;34.132;-118.018;2023-02-20T00:04:23;100168.53;;;20.38;27.73
50368;BME280;36281;34.132;-118.018;2023-02-20T00:06:54;100164.25;;;20.32;28.23
50368;BME280;36281;34.132;-118.018;2023-02-20T00:09:23;100165.59;;;20.29;28.77
50368;BME280;36281;34.132;-118.018;2023-02-20T00:11:52;100174.47;;;20.25;29.11
50368;BME280;36281;34.132;-118.018;2023-02-20T00:14:21;100173.91;;;20.18;29.33
50368;BME280;36281;34.132;-118.018;2023-02-20T00:16:50;100172.28;;;20.11;29.48
50368;BME280;36281;34.132;-118.018;2023-02-20T00:19:19;100184.13;;;20.05;29.71
50368;BME280;36281;34.132;-118.018;2023-02-20T00:21:49;100187.88;;;19.99;29.87
50368;BME280;36281;34.132;-118.018;2023-02-20T00:24:22;100190.00;;;19.92;29.52
50368;BME280;36281;34.132;-118.018;2023-02-20T00:26:52;100191.59;;;19.83;29.08
50368;BME280;36281;34.132;-118.018;2023-02-20T00:29:22;100197.50;;;19.75;28.70
50368;BME280;36281;34.132;-118.018;2023-02-20T00:31:52;100202.31;;;19.73;28.05
50368;BME280;36281;34.132;-118.018;2023-02-20T00:34:23;100207.94;;;19.66;28.07
50368;BME280;36281;34.132;-118.018;2023-02-20T00:36:53;100214.91;;;19.62;27.98
50368;BME280;36281;34.132;-118.018;2023-02-20T00:39:24;100217.81;;;19.55;27.67
50368;BME280;36281;34.132;-118.018;2023-02-20T00:41:53;100233.34;;;19.48;27.39
50368;BME280;36281;34.132;-118.018;2023-02-20T00:44:23;100242.72;;;19.41;26.18
50368;BME280;36281;34.132;-118.018;2023-02-20T00:46:52;100245.59;;;19.29;25.72
50368;BME280;36281;34.132;-118.018;2023-02-20T00:49:21;100253.63;;;19.24;25.80
50368;BME280;36281;34.132;-118.018;2023-02-20T00:51:50;100263.78;;;19.17;25.88
50368;BME280;36281;34.132;-118.018;2023-02-20T00:54:19;100263.44;;;19.08;26.42
50368;BME280;36281;34.132;-118.018;2023-02-20T00:56:50;100277.59;;;18.98;26.73
50368;BME280;36281;34.132;-118.018;2023-02-20T00:59:19;100276.47;;;18.89;27.02
50368;BME280;36281;34.132;-118.018;2023-02-20T01:01:48;100277.50;;;18.83;27.24
50368;BME280;36281;34.132;-118.018;2023-02-20T01:04:17;100288.19;;;18.78;27.23
50368;BME280;36281;34.132;-118.018;2023-02-20T01:06:47;100285.97;;;18.70;27.18
50368;BME280;36281;34.132;-118.018;2023-02-20T01:09:16;100285.59;;;18.61;27.30
50368;BME280;36281;34.132;-118.018;2023-02-20T01:11:45;100285.25;;;18.52;26.93
50368;BME280;36281;34.132;-118.018;2023-02-20T01:14:16;100296.19;;;18.46;27.21
50368;BME280;36281;34.132;-118.018;2023-02-20T01:16:46;100300.69;;;18.40;27.20
50368;BME280;36281;34.132;-118.018;2023-02-20T01:19:16;100302.47;;;18.34;27.10
50368;BME280;36281;34.132;-118.018;2023-02-20T01:21:45;100298.88;;;18.24;26.74
50368;BME280;36281;34.132;-118.018;2023-02-20T01:24:16;100299.91;;;18.18;27.15
50368;BME280;36281;34.132;-118.018;2023-02-20T01:26:47;100305.41;;;18.06;27.46
50368;BME280;36281;34.132;-118.018;2023-02-20T01:29:18;100308.50;;;17.98;28.01
50368;BME280;36281;34.132;-118.018;2023-02-20T01:31:48;100313.00;;;17.92;28.33
50368;BME280;36281;34.132;-118.018;2023-02-20T01:34:19;100319.84;;;17.83;28.57
50368;BME280;36281;34.132;-118.018;2023-02-20T01:36:48;100322.72;;;17.76;28.91
50368;BME280;36281;34.132;-118.018;2023-02-20T01:39:19;100330.06;;;17.69;29.30
50368;BME280;36281;34.132;-118.018;2023-02-20T01:41:50;100336.59;;;17.56;29.63
50368;BME280;36281;34.132;-118.018;2023-02-20T01:44:24;100340.28;;;17.50;30.44
50368;BME280;36281;34.132;-118.018;2023-02-20T01:46:54;100350.88;;;17.45;31.44
50368;BME280;36281;34.132;-118.018;2023-02-20T01:49:29;100359.00;;;17.34;32.04
50368;BME280;36281;34.132;-118.018;2023-02-20T01:52:04;100362.09;;;17.25;32.89
50368;BME280;36281;34.132;-118.018;2023-02-20T01:54:35;100368.13;;;17.16;32.66
50368;BME280;36281;34.132;-118.018;2023-02-20T01:57:08;100371.72;;;17.10;33.72
50368;BME280;36281;34.132;-118.018;2023-02-20T01:59:43;100372.38;;;17.00;34.16
50368;BME280;36281;34.132;-118.018;2023-02-20T02:02:14;100377.53;;;16.90;33.74
50368;BME280;36281;34.132;-118.018;2023-02-20T02:04:44;100373.53;;;16.75;33.75
50368;BME280;36281;34.132;-118.018;2023-02-20T02:07:15;100380.53;;;16.65;33.95
50368;BME280;36281;34.132;-118.018;2023-02-20T02:09:50;100385.47;;;16.56;33.65
50368;BME280;36281;34.132;-118.018;2023-02-20T02:12:20;100385.25;;;16.46;33.47
50368;BME280;36281;34.132;-118.018;2023-02-20T02:14:51;100383.22;;;16.36;32.68
50368;BME280;36281;34.132;-118.018;2023-02-20T02:17:45;100384.63;;;16.27;33.28
50368;BME280;36281;34.132;-118.018;2023-02-20T02:23:55;100400.81;;;16.09;33.95
50368;BME280;36281;34.132;-118.018;2023-02-20T02:26:56;100391.78;;;15.98;34.69
50368;BME280;36281;34.132;-118.018;2023-02-20T02:29:52;100402.94;;;15.83;35.60
50368;BME280;36281;34.132;-118.018;2023-02-20T02:32:48;100400.59;;;15.75;35.70
50368;BME280;36281;34.132;-118.018;2023-02-20T02:35:37;100412.22;;;15.69;35.65
50368;BME280;36281;34.132;-118.018;2023-02-20T02:38:18;100420.53;;;15.61;35.77
50368;BME280;36281;34.132;-118.018;2023-02-20T02:40:54;100421.44;;;15.55;36.08
50368;BME280;36281;34.132;-118.018;2023-02-20T02:43:32;100416.22;;;15.48;36.68
50368;BME280;36281;34.132;-118.018;2023-02-20T02:46:06;100409.97;;;15.42;37.05
50368;BME280;36281;34.132;-118.018;2023-02-20T02:48:43;100410.66;;;15.38;37.99
50368;BME280;36281;34.132;-118.018;2023-02-20T02:51:17;100410.16;;;15.29;38.24
50368;BME280;36281;34.132;-118.018;2023-02-20T02:54:06;100420.13;;;15.22;39.11
50368;BME280;36281;34.132;-118.018;2023-02-20T02:56:37;100422.56;;;15.12;39.46
50368;BME280;36281;34.132;-118.018;2023-02-20T02:59:08;100428.88;;;14.99;39.66
50368;BME280;36281;34.132;-118.018;2023-02-20T03:01:40;100421.19;;;14.91;39.29
50368;BME280;36281;34.132;-118.018;2023-02-20T03:04:12;100422.09;;;14.85;39.40
50368;BME280;36281;34.132;-118.018;2023-02-20T03:06:43;100425.28;;;14.75;39.87
50368;BME280;36281;34.132;-118.018;2023-02-20T03:09:20;100427.25;;;14.68;40.40
50368;BME280;36281;34.132;-118.018;2023-02-20T03:11:55;100418.88;;;14.64;40.42
50368;BME280;36281;34.132;-118.018;2023-02-20T03:14:27;100426.72;;;14.59;41.16
50368;BME280;36281;34.132;-118.018;2023-02-20T03:17:22;100417.78;;;14.54;41.76
50368;BME280;36281;34.132;-118.018;2023-02-20T03:19:58;100414.97;;;14.48;41.86
50368;BME280;36281;34.132;-118.018;2023-02-20T03:22:34;100421.38;;;14.41;42.28
50368;BME280;36281;34.132;-118.018;2023-02-20T03:25:10;100429.22;;;14.36;43.01
50368;BME280;36281;34.132;-118.018;2023-02-20T03:27:45;100432.34;;;14.33;42.88
50368;BME280;36281;34.132;-118.018;2023-02-20T03:30:20;100422.94;;;14.30;43.52
50368;BME280;36281;34.132;-118.018;2023-02-20T03:32:54;100421.56;;;14.28;43.40
50368;BME280;36281;34.132;-118.018;2023-02-20T03:35:46;100418.75;;;14.22;43.84
50368;BME280;36281;34.132;-118.018;2023-02-20T03:38:37;100421.84;;;14.19;44.01
50368;BME280;36281;34.132;-118.018;2023-02-20T03:41:29;100428.06;;;14.13;44.12
50368;BME280;36281;34.132;-118.018;2023-02-20T03:44:20;100431.59;;;14.07;44.11
50368;BME280;36281;34.132;-118.018;2023-02-20T03:46:52;100426.94;;;14.03;44.47
50368;BME280;36281;34.132;-118.018;2023-02-20T03:49:28;100433.75;;;13.99;44.96
50368;BME280;36281;34.132;-118.018;2023-02-20T03:51:59;100430.09;;;13.93;44.73
50368;BME280;36281;34.132;-118.018;2023-02-20T03:54:29;100434.47;;;13.87;45.06
50368;BME280;36281;34.132;-118.018;2023-02-20T03:57:03;100435.31;;;13.81;45.18
50368;BME280;36281;34.132;-118.018;2023-02-20T03:59:37;100432.06;;;13.79;45.68
50368;BME280;36281;34.132;-118.018;2023-02-20T04:02:12;100436.44;;;13.74;45.76
50368;BME280;36281;34.132;-118.018;2023-02-20T04:04:46;100437.66;;;13.71;46.18
50368;BME280;36281;34.132;-118.018;2023-02-20T04:07:20;100441.78;;;13.67;46.01
50368;BME280;36281;34.132;-118.018;2023-02-20T04:09:52;100439.34;;;13.65;46.25
50368;BME280;36281;34.132;-118.018;2023-02-20T04:12:26;100435.28;;;13.63;46.45
50368;BME280;36281;34.132;-118.018;2023-02-20T04:14:59;100426.47;;;13.62;46.55
50368;BME280;36281;34.132;-118.018;2023-02-20T04:17:30;100417.66;;;13.62;46.09
50368;BME280;36281;34.132;-118.018;2023-02-20T04:20:00;100410.13;;;13.59;46.14
50368;BME280;36281;34.132;-118.018;2023-02-20T04:22:32;100402.59;;;13.56;45.99
50368;BME280;36281;34.132;-118.018;2023-02-20T04:25:10;100417.97;;;13.54;46.27
50368;BME280;36281;34.132;-118.018;2023-02-20T04:27:43;100417.34;;;13.52;46.17
50368;BME280;36281;34.132;-118.018;2023-02-20T04:30:12;100406.72;;;13.52;46.50
50368;BME280;36281;34.132;-118.018;2023-02-20T04:32:41;100412.03;;;13.52;46.60
50368;BME280;36281;34.132;-118.018;2023-02-20T04:35:16;100409.19;;;13.47;45.87
50368;BME280;36281;34.132;-118.018;2023-02-20T04:37:46;100405.16;;;13.44;46.33
50368;BME280;36281;34.132;-118.018;2023-02-20T04:40:16;100406.78;;;13.45;46.46
50368;BME280;36281;34.132;-118.018;2023-02-20T04:42:47;100405.97;;;13.44;45.72
50368;BME280;36281;34.132;-118.018;2023-02-20T04:45:16;100407.81;;;13.44;45.27
50368;BME280;36281;34.132;-118.018;2023-02-20T04:47:46;100418.22;;;13.45;45.64
50368;BME280;36281;34.132;-118.018;2023-02-20T04:50:20;100412.91;;;13.45;45.73
50368;BME280;36281;34.132;-118.018;2023-02-20T04:52:49;100414.31;;;13.48;46.75
50368;BME280;36281;34.132;-118.018;2023-02-20T04:55:21;100417.00;;;13.48;46.37
50368;BME280;36281;34.132;-118.018;2023-02-20T04:57:52;100411.44;;;13.50;47.12
50368;BME280;36281;34.132;-118.018;2023-02-20T05:00:24;100404.28;;;13.50;46.90
50368;BME280;36281;34.132;-118.018;2023-02-20T05:02:54;100409.81;;;13.49;47.62
50368;BME280;36281;34.132;-118.018;2023-02-20T05:05:24;100412.47;;;13.49;48.32
50368;BME280;36281;34.132;-118.018;2023-02-20T05:07:54;100417.19;;;13.47;48.22
50368;BME280;36281;34.132;-118.018;2023-02-20T05:10:25;100417.19;;;13.47;48.42
50368;BME280;36281;34.132;-118.018;2023-02-20T05:12:56;100419.50;;;13.43;48.00
50368;BME280;36281;34.132;-118.018;2023-02-20T05:15:26;100427.50;;;13.36;48.28
50368;BME280;36281;34.132;-118.018;2023-02-20T05:17:56;100424.25;;;13.34;48.29
50368;BME280;36281;34.132;-118.018;2023-02-20T05:20:25;100420.16;;;13.32;48.39
50368;BME280;36281;34.132;-118.018;2023-02-20T05:23:13;100428.59;;;13.29;47.86
50368;BME280;36281;34.132;-118.018;2023-02-20T05:25:42;100429.41;;;13.29;48.64
50368;BME280;36281;34.132;-118.018;2023-02-20T05:28:13;100420.00;;;13.27;48.35
50368;BME280;36281;34.132;-118.018;2023-02-20T05:30:42;100420.44;;;13.24;47.68
50368;BME280;36281;34.132;-118.018;2023-02-20T05:33:11;100431.09;;;13.24;47.67
50368;BME280;36281;34.132;-118.018;2023-02-20T05:35:40;100434.75;;;13.23;47.62
50368;BME280;36281;34.132;-118.018;2023-02-20T05:38:16;100445.00;;;13.19;47.42
50368;BME280;36281;34.132;-118.018;2023-02-20T05:40:45;100448.88;;;13.16;47.61
50368;BME280;36281;34.132;-118.018;2023-02-20T05:43:17;100443.78;;;13.15;47.85
50368;BME280;36281;34.132;-118.018;2023-02-20T05:45:46;100447.91;;;13.11;48.03
50368;BME280;36281;34.132;-118.018;2023-02-20T05:48:15;100450.38;;;13.06;47.49
50368;BME280;36281;34.132;-118.018;2023-02-20T05:50:44;100450.81;;;13.03;48.38
50368;BME280;36281;34.132;-118.018;2023-02-20T05:53:13;100442.22;;;13.01;47.92
50368;BME280;36281;34.132;-118.018;2023-02-20T05:55:42;100436.31;;;12.99;48.22
50368;BME280;36281;34.132;-118.018;2023-02-20T05:58:11;100439.41;;;12.96;47.34
50368;BME280;36281;34.132;-118.018;2023-02-20T06:00:42;100441.66;;;12.92;47.10
50368;BME280;36281;34.132;-118.018;2023-02-20T06:03:12;100436.97;;;12.87;47.27
50368;BME280;36281;34.132;-118.018;2023-02-20T06:05:41;100439.47;;;12.82;48.00
50368;BME280;36281;34.132;-118.018;2023-02-20T06:08:11;100429.84;;;12.81;47.75
50368;BME280;36281;34.132;-118.018;2023-02-20T06:10:40;100423.94;;;12.79;48.10
50368;BME280;36281;34.132;-118.018;2023-02-20T06:13:09;100421.28;;;12.79;48.14
50368;BME280;36281;34.132;-118.018;2023-02-20T06:15:38;100424.97;;;12.78;48.51
50368;BME280;36281;34.132;-118.018;2023-02-20T06:18:08;100419.03;;;12.76;48.56
50368;BME280;36281;34.132;-118.018;2023-02-20T06:20:37;100421.13;;;12.74;48.55
50368;BME280;36281;34.132;-118.018;2023-02-20T06:23:06;100418.88;;;12.71;48.71
50368;BME280;36281;34.132;-118.018;2023-02-20T06:25:35;100422.78;;;12.68;48.55
50368;BME280;36281;34.132;-118.018;2023-02-20T06:28:04;100418.69;;;12.66;48.98
50368;BME280;36281;34.132;-118.018;2023-02-20T06:30:33;100422.38;;;12.65;49.50
50368;BME280;36281;34.132;-118.018;2023-02-20T06:33:03;100416.44;;;12.63;49.09
50368;BME280;36281;34.132;-118.018;2023-02-20T06:35:33;100408.69;;;12.61;49.48
50368;BME280;36281;34.132;-118.018;2023-02-20T06:38:02;100411.56;;;12.60;49.35
50368;BME280;36281;34.132;-118.018;2023-02-20T06:40:32;100403.19;;;12.56;49.35
50368;BME280;36281;34.132;-118.018;2023-02-20T06:43:01;100413.00;;;12.56;49.72
50368;BME280;36281;34.132;-118.018;2023-02-20T06:45:30;100413.41;;;12.53;49.58
50368;BME280;36281;34.132;-118.018;2023-02-20T06:47:59;100417.94;;;12.52;50.49
50368;BME280;36281;34.132;-118.018;2023-02-20T06:50:28;100416.75;;;12.48;50.07
50368;BME280;36281;34.132;-118.018;2023-02-20T06:52:58;100418.78;;;12.46;50.37
50368;BME280;36281;34.132;-118.018;2023-02-20T06:55:27;100417.56;;;12.42;50.83
50368;BME280;36281;34.132;-118.018;2023-02-20T06:57:56;100408.19;;;12.39;50.86
50368;BME280;36281;34.132;-118.018;2023-02-20T07:00:26;100410.44;;;12.36;49.97
50368;BME280;36281;34.132;-118.018;2023-02-20T07:02:55;100403.31;;;12.30;49.99
50368;BME280;36281;34.132;-118.018;2023-02-20T07:05:24;100409.03;;;12.27;49.99
50368;BME280;36281;34.132;-118.018;2023-02-20T07:07:53;100405.16;;;12.23;49.96
50368;BME280;36281;34.132;-118.018;2023-02-20T07:10:23;100400.47;;;12.18;49.73
50368;BME280;36281;34.132;-118.018;2023-02-20T07:12:54;100393.16;;;12.13;50.13
50368;BME280;36281;34.132;-118.018;2023-02-20T07:15:23;100391.13;;;12.09;50.21
50368;BME280;36281;34.132;-118.018;2023-02-20T07:17:52;100393.16;;;12.07;51.05
50368;BME280;36281;34.132;-118.018;2023-02-20T07:20:21;100393.78;;;12.02;51.05
50368;BME280;36281;34.132;-118.018;2023-02-20T07:22:51;100385.03;;;11.95;50.73
50368;BME280;36281;34.132;-118.018;2023-02-20T07:25:23;100392.38;;;11.93;51.16
50368;BME280;36281;34.132;-118.018;2023-02-20T07:27:52;100389.94;;;11.85;50.86
50368;BME280;36281;34.132;-118.018;2023-02-20T07:30:21;100394.22;;;11.79;50.55
50368;BME280;36281;34.132;-118.018;2023-02-20T07:32:52;100397.50;;;11.75;50.88
50368;BME280;36281;34.132;-118.018;2023-02-20T07:35:21;100387.88;;;11.67;51.66
50368;BME280;36281;34.132;-118.018;2023-02-20T07:37:50;100388.50;;;11.62;51.49
50368;BME280;36281;34.132;-118.018;2023-02-20T07:40:19;100389.94;;;11.58;51.36
50368;BME280;36281;34.132;-118.018;2023-02-20T07:42:51;100397.28;;;11.56;51.76
50368;BME280;36281;34.132;-118.018;2023-02-20T07:45:20;100390.75;;;11.52;52.11
50368;BME280;36281;34.132;-118.018;2023-02-20T07:47:49;100401.78;;;11.49;52.37
50368;BME280;36281;34.132;-118.018;2023-02-20T07:50:19;100401.59;;;11.44;52.35
50368;BME280;36281;34.132;-118.018;2023-02-20T07:52:48;100405.03;;;11.38;52.58
50368;BME280;36281;34.132;-118.018;2023-02-20T07:55:17;100409.94;;;11.34;53.35
50368;BME280;36281;34.132;-118.018;2023-02-20T07:57:47;100398.50;;;11.27;52.75
50368;BME280;36281;34.132;-118.018;2023-02-20T08:00:20;100403.59;;;11.22;52.91
50368;BME280;36281;34.132;-118.018;2023-02-20T08:02:49;100403.41;;;11.17;53.34
50368;BME280;36281;34.132;-118.018;2023-02-20T08:05:18;100398.50;;;11.14;53.20
50368;BME280;36281;34.132;-118.018;2023-02-20T08:07:48;100397.06;;;11.11;53.51
50368;BME280;36281;34.132;-118.018;2023-02-20T08:10:19;100398.47;;;11.07;53.90
50368;BME280;36281;34.132;-118.018;2023-02-20T08:12:48;100397.47;;;11.02;54.18
50368;BME280;36281;34.132;-118.018;2023-02-20T08:15:20;100392.75;;;10.97;54.41
50368;BME280;36281;34.132;-118.018;2023-02-20T08:17:50;100400.50;;;10.92;54.10
50368;BME280;36281;34.132;-118.018;2023-02-20T08:20:20;100397.63;;;10.87;54.24
50368;BME280;36281;34.132;-118.018;2023-02-20T08:22:49;100397.41;;;10.82;54.50
50368;BME280;36281;34.132;-118.018;2023-02-20T08:25:18;100399.03;;;10.76;55.10
50368;BME280;36281;34.132;-118.018;2023-02-20T08:27:48;100399.03;;;10.70;55.13
50368;BME280;36281;34.132;-118.018;2023-02-20T08:30:21;100399.63;;;10.65;55.51
50368;BME280;36281;34.132;-118.018;2023-02-20T08:32:52;100403.69;;;10.61;55.45
50368;BME280;36281;34.132;-118.018;2023-02-20T08:35:22;100408.75;;;10.56;55.53
50368;BME280;36281;34.132;-118.018;2023-02-20T08:37:52;100413.25;;;10.55;55.77
50368;BME280;36281;34.132;-118.018;2023-02-20T08:40:21;100408.13;;;10.54;55.71
50368;BME280;36281;34.132;-118.018;2023-02-20T08:42:50;100404.06;;;10.51;55.47
50368;BME280;36281;34.132;-118.018;2023-02-20T08:45:21;100401.59;;;10.50;55.45
50368;BME280;36281;34.132;-118.018;2023-02-20T08:47:51;100401.59;;;10.50;55.89
50368;BME280;36281;34.132;-118.018;2023-02-20T08:50:24;100398.31;;;10.48;55.85
50368;BME280;36281;34.132;-118.018;2023-02-20T08:52:53;100403.81;;;10.46;55.71
50368;BME280;36281;34.132;-118.018;2023-02-20T08:55:22;100405.66;;;10.46;55.95
50368;BME280;36281;34.132;-118.018;2023-02-20T08:57:51;100397.94;;;10.44;55.95
50368;BME280;36281;34.132;-118.018;2023-02-20T09:00:22;100394.44;;;10.44;56.05
50368;BME280;36281;34.132;-118.018;2023-02-20T09:02:51;100392.81;;;10.43;56.19
50368;BME280;36281;34.132;-118.018;2023-02-20T09:05:20;100392.81;;;10.43;56.28
50368;BME280;36281;34.132;-118.018;2023-02-20T09:07:50;100386.91;;;10.41;56.50
50368;BME280;36281;34.132;-118.018;2023-02-20T09:10:19;100385.44;;;10.38;56.38
50368;BME280;36281;34.132;-118.018;2023-02-20T09:12:48;100383.81;;;10.37;56.76
50368;BME280;36281;34.132;-118.018;2023-02-20T09:15:17;100388.50;;;10.35;56.79
50368;BME280;36281;34.132;-118.018;2023-02-20T09:17:49;100401.94;;;10.33;56.82
50368;BME280;36281;34.132;-118.018;2023-02-20T09:20:20;100395.41;;;10.29;56.64
50368;BME280;36281;34.132;-118.018;2023-02-20T09:22:50;100395.78;;;10.26;56.54
50368;BME280;36281;34.132;-118.018;2023-02-20T09:25:19;100393.69;;;10.22;56.59
50368;BME280;36281;34.132;-118.018;2023-02-20T09:27:49;100395.75;;;10.20;56.68
50368;BME280;36281;34.132;-118.018;2023-02-20T09:30:19;100401.63;;;10.15;56.84
50368;BME280;36281;34.132;-118.018;2023-02-20T09:32:50;100403.41;;;10.08;56.98
50368;BME280;36281;34.132;-118.018;2023-02-20T09:35:22;100407.44;;;10.04;57.31
50368;BME280;36281;34.132;-118.018;2023-02-20T09:37:51;100415.97;;;9.99;57.89
50368;BME280;36281;34.132;-118.018;2023-02-20T09:40:22;100409.63;;;9.94;57.81
50368;BME280;36281;34.132;-118.018;2023-02-20T09:43:08;100408.16;;;9.84;57.81
50368;BME280;36281;34.132;-118.018;2023-02-20T09:45:47;100424.78;;;9.78;57.68
50368;BME280;36281;34.132;-118.018;2023-02-20T09:48:32;100420.72;;;9.76;57.54
50368;BME280;36281;34.132;-118.018;2023-02-20T09:51:11;100419.06;;;9.75;57.79
50368;BME280;36281;34.132;-118.018;2023-02-20T09:53:50;100418.22;;;9.74;58.08
50368;BME280;36281;34.132;-118.018;2023-02-20T09:56:24;100421.28;;;9.71;58.43
50368;BME280;36281;34.132;-118.018;2023-02-20T09:58:57;100415.34;;;9.69;58.73
50368;BME280;36281;34.132;-118.018;2023-02-20T10:01:30;100418.19;;;9.68;58.65
50368;BME280;36281;34.132;-118.018;2023-02-20T10:04:06;100430.00;;;9.65;58.26
50368;BME280;36281;34.132;-118.018;2023-02-20T10:06:38;100428.53;;;9.63;58.27
50368;BME280;36281;34.132;-118.018;2023-02-20T10:09:11;100414.50;;;9.62;58.10
50368;BME280;36281;34.132;-118.018;2023-02-20T10:11:58;100423.44;;;9.61;58.26
50368;BME280;36281;34.132;-118.018;2023-02-20T10:14:50;100418.09;;;9.54;58.03
50368;BME280;36281;34.132;-118.018;2023-02-20T10:17:29;100418.28;;;9.53;58.28
50368;BME280;36281;34.132;-118.018;2023-02-20T10:20:09;100422.97;;;9.51;58.17
50368;BME280;36281;34.132;-118.018;2023-02-20T10:22:47;100422.31;;;9.49;58.56
50368;BME280;36281;34.132;-118.018;2023-02-20T10:25:21;100425.34;;;9.46;58.90
50368;BME280;36281;34.132;-118.018;2023-02-20T10:27:55;100425.72;;;9.43;58.86
50368;BME280;36281;34.132;-118.018;2023-02-20T10:30:30;100425.09;;;9.41;59.07
50368;BME280;36281;34.132;-118.018;2023-02-20T10:33:13;100413.88;;;9.39;58.94
50368;BME280;36281;34.132;-118.018;2023-02-20T10:35:49;100415.91;;;9.37;58.98
50368;BME280;36281;34.132;-118.018;2023-02-20T10:38:21;100407.34;;;9.35;59.04
50368;BME280;36281;34.132;-118.018;2023-02-20T10:40:58;100403.63;;;9.29;59.21
50368;BME280;36281;34.132;-118.018;2023-02-20T10:43:34;100404.84;;;9.26;58.90
50368;BME280;36281;34.132;-118.018;2023-02-20T10:46:11;100396.66;;;9.21;59.03
50368;BME280;36281;34.132;-118.018;2023-02-20T10:48:42;100399.06;;;9.16;59.15
50368;BME280;36281;34.132;-118.018;2023-02-20T10:51:18;100390.88;;;9.11;59.27
50368;BME280;36281;34.132;-118.018;2023-02-20T10:53:56;100393.91;;;9.08;59.17
50368;BME280;36281;34.132;-118.018;2023-02-20T10:56:29;100390.44;;;9.07;59.52
50368;BME280;36281;34.132;-118.018;2023-02-20T10:59:05;100386.72;;;9.02;59.56
50368;BME280;36281;34.132;-118.018;2023-02-20T11:01:37;100377.19;;;9.01;59.56
50368;BME280;36281;34.132;-118.018;2023-02-20T11:04:11;100372.06;;;8.99;59.55
50368;BME280;36281;34.132;-118.018;2023-02-20T11:06:46;100371.25;;;8.99;59.60
50368;BME280;36281;34.132;-118.018;2023-02-20T11:09:18;100366.34;;;8.96;59.77
50368;BME280;36281;34.132;-118.018;2023-02-20T11:11:47;100360.63;;;8.92;60.18
50368;BME280;36281;34.132;-118.018;2023-02-20T11:14:20;100367.94;;;8.90;60.45
50368;BME280;36281;34.132;-118.018;2023-02-20T11:17:08;100373.94;;;8.84;60.45
50368;BME280;36281;34.132;-118.018;2023-02-20T11:19:43;100362.75;;;8.82;60.20
50368;BME280;36281;34.132;-118.018;2023-02-20T11:22:17;100365.97;;;8.77;60.88
50368;BME280;36281;34.132;-118.018;2023-02-20T11:24:46;100355.97;;;8.73;60.89
50368;BME280;36281;34.132;-118.018;2023-02-20T11:27:16;100360.44;;;8.72;61.35
50368;BME280;36281;34.132;-118.018;2023-02-20T11:29:50;100359.63;;;8.72;60.72
50368;BME280;36281;34.132;-118.018;2023-02-20T11:32:38;100354.69;;;8.69;60.99
50368;BME280;36281;34.132;-118.018;2023-02-20T11:35:27;100369.09;;;8.66;61.24
50368;BME280;36281;34.132;-118.018;2023-02-20T11:38:25;100372.09;;;8.63;61.26
50368;BME280;36281;34.132;-118.018;2023-02-20T11:41:05;100369.19;;;8.58;61.51
50368;BME280;36281;34.132;-118.018;2023-02-20T11:43:37;100363.31;;;8.56;60.79
50368;BME280;36281;34.132;-118.018;2023-02-20T11:46:14;100359.84;;;8.56;60.75
50368;BME280;36281;34.132;-118.018;2023-02-20T11:49:02;100358.19;;;8.54;60.90
50368;BME280;36281;34.132;-118.018;2023-02-20T11:51:35;100364.28;;;8.55;61.16
50368;BME280;36281;34.132;-118.018;2023-02-20T11:54:16;100358.59;;;8.51;61.52
50368;BME280;36281;34.132;-118.018;2023-02-20T11:56:58;100360.41;;;8.51;60.99
50368;BME280;36281;34.132;-118.018;2023-02-20T11:59:36;100359.75;;;8.49;61.54
50368;BME280;36281;34.132;-118.018;2023-02-20T12:02:20;100357.50;;;8.46;61.51
50368;BME280;36281;34.132;-118.018;2023-02-20T12:05:06;100353.41;;;8.43;61.81
50368;BME280;36281;34.132;-118.018;2023-02-20T12:07:38;100345.69;;;8.42;61.79
50368;BME280;36281;34.132;-118.018;2023-02-20T12:10:32;100352.94;;;8.40;61.73
50368;BME280;36281;34.132;-118.018;2023-02-20T12:13:04;100353.13;;;8.38;61.59
50368;BME280;36281;34.132;-118.018;2023-02-20T12:15:34;100350.69;;;8.37;61.79
50368;BME280;36281;34.132;-118.018;2023-02-20T12:18:35;100346.94;;;8.31;61.98
50368;BME280;36281;34.132;-118.018;2023-02-20T12:21:16;100352.78;;;8.26;61.53
50368;BME280;36281;34.132;-118.018;2023-02-20T12:24:02;100350.94;;;8.27;61.97
50368;BME280;36281;34.132;-118.018;2023-02-20T12:26:42;100353.78;;;8.25;62.19
50368;BME280;36281;34.132;-118.018;2023-02-20T12:29:23;100346.03;;;8.24;62.19
50368;BME280;36281;34.132;-118.018;2023-02-20T12:32:04;100353.13;;;8.23;62.49
50368;BME280;36281;34.132;-118.018;2023-02-20T12:37:43;100353.31;;;8.22;62.73
50368;BME280;36281;34.132;-118.018;2023-02-20T12:40:36;100356.97;;;8.21;62.16
50368;BME280;36281;34.132;-118.018;2023-02-20T12:43:16;100357.13;;;8.19;62.00
50368;BME280;36281;34.132;-118.018;2023-02-20T12:45:51;100357.53;;;8.16;62.18
50368;BME280;36281;34.132;-118.018;2023-02-20T12:48:34;100360.50;;;8.13;63.12
50368;BME280;36281;34.132;-118.018;2023-02-20T12:51:14;100357.25;;;8.11;62.64
50368;BME280;36281;34.132;-118.018;2023-02-20T12:53:58;100350.06;;;8.05;63.01
50368;BME280;36281;34.132;-118.018;2023-02-20T12:56:43;100346.78;;;8.03;63.58
50368;BME280;36281;34.132;-118.018;2023-02-20T12:59:24;100350.59;;;8.00;63.44
50368;BME280;36281;34.132;-118.018;2023-02-20T13:02:01;100350.78;;;7.99;63.54